Time;durP1;ratioP1;P1;durP2;ratioP2;P2;SDS_P1;SDS_P2;PMS_P1;PMS_P2;Temp;Humidity;BMP_temperature;BMP_pressure;BME280_temperature;BME280_humidity;BME280_pressure;Samples;Min_cycle;Max_cycle;Signal;HPM_P1;HPM_P2
2023/04/01 00:00:58;;;;;;;8.97;3.23;;;10.50;99.90;;;;;;4990624;28;20182;-68
2023/04/01 00:03:26;;;;;;;11.37;2.90;;;10.50;99.90;;;;;;4991085;28;20207;-68
2023/04/01 00:05:53;;;;;;;16.63;3.43;;;10.50;99.90;;;;;;4991639;28;20650;-68
2023/04/01 00:08:19;;;;;;;14.97;3.40;;;10.60;99.90;;;;;;4992022;28;20175;-68
2023/04/01 00:10:45;;;;;;;15.97;3.83;;;10.50;99.90;;;;;;4991651;28;20765;-68
2023/04/01 00:13:11;;;;;;;16.63;4.43;;;10.50;99.90;;;;;;4991764;28;20646;-68
2023/04/01 00:15:37;;;;;;;15.23;3.97;;;10.40;99.90;;;;;;4991694;28;20176;-68
2023/04/01 00:18:02;;;;;;;18.77;4.50;;;10.50;99.90;;;;;;4991532;28;20250;-68
2023/04/01 00:20:28;;;;;;;18.20;3.80;;;10.50;99.90;;;;;;4992106;28;20226;-68
2023/04/01 00:22:54;;;;;;;18.20;5.17;;;10.40;99.90;;;;;;4991096;28;20222;-67
2023/04/01 00:25:21;;;;;;;9.60;3.63;;;10.50;99.90;;;;;;4991618;28;20623;-68
2023/04/01 00:27:47;;;;;;;18.37;4.70;;;10.40;99.90;;;;;;4982411;28;20275;-68
2023/04/01 00:30:13;;;;;;;17.33;4.10;;;10.40;99.90;;;;;;4991149;28;20737;-68
2023/04/01 00:32:38;;;;;;;18.77;3.63;;;10.40;99.90;;;;;;4978907;28;20172;-68
2023/04/01 00:35:04;;;;;;;14.73;3.87;;;10.40;99.90;;;;;;4990824;28;20189;-68
2023/04/01 00:37:30;;;;;;;15.13;3.53;;;10.40;99.90;;;;;;4990901;28;20223;-67
2023/04/01 00:39:56;;;;;;;12.83;3.03;;;10.60;99.90;;;;;;4990638;28;20182;-68
2023/04/01 00:42:23;;;;;;;11.73;2.97;;;10.40;99.90;;;;;;4990963;28;20254;-68
2023/04/01 00:44:51;;;;;;;14.43;3.50;;;10.40;99.90;;;;;;4991243;28;20167;-68
2023/04/01 00:47:18;;;;;;;19.97;3.50;;;10.40;99.90;;;;;;4990690;28;20175;-67
2023/04/01 00:49:47;;;;;;;12.40;3.13;;;10.60;99.90;;;;;;4989633;28;20226;-68
2023/04/01 00:52:17;;;;;;;14.27;3.73;;;10.40;99.90;;;;;;4973744;28;20242;-68
2023/04/01 00:54:46;;;;;;;16.97;3.20;;;10.40;99.90;;;;;;4991529;28;20179;-68
2023/04/01 00:57:18;;;;;;;19.53;3.77;;;10.40;99.90;;;;;;4989464;28;20186;-68
2023/04/01 00:59:47;;;;;;;13.97;3.43;;;10.40;99.90;;;;;;4972176;28;20180;-68
2023/04/01 01:02:14;;;;;;;19.10;3.60;;;10.40;99.90;;;;;;4977894;28;20195;-68
2023/04/01 01:04:40;;;;;;;16.37;3.70;;;10.40;99.90;;;;;;4991085;28;20175;-68
2023/04/01 01:07:24;;;;;;;14.97;3.73;;;10.30;99.90;;;;;;4990821;28;20190;-68
2023/04/01 01:10:29;;;;;;;16.97;3.90;;;10.40;99.90;;;;;;4993699;28;20265;-69
2023/04/01 01:13:16;;;;;;;9.67;3.30;;;10.40;99.90;;;;;;4994364;28;20251;-69
2023/04/01 01:15:46;;;;;;;12.90;3.53;;;10.50;99.90;;;;;;4994731;28;20657;-69
2023/04/01 01:18:57;;;;;;;9.40;3.30;;;10.40;99.90;;;;;;4977249;28;20226;-69
2023/04/01 01:21:43;;;;;;;9.23;3.43;;;10.40;99.90;;;;;;4916055;29;20181;-68
2023/04/01 01:24:12;;;;;;;15.90;3.33;;;10.30;99.90;;;;;;4994323;28;20179;-68
2023/04/01 01:27:02;;;;;;;13.60;3.33;;;10.30;99.90;;;;;;4975927;28;20574;-68
2023/04/01 01:29:55;;;;;;;10.37;3.17;;;10.40;99.90;;;;;;4993821;28;20206;-68
2023/04/01 01:32:59;;;;;;;11.70;3.23;;;10.30;99.90;;;;;;4987054;28;20674;-68
2023/04/01 01:35:38;;;;;;;9.53;3.50;;;10.30;99.90;;;;;;4994041;28;20186;-68
2023/04/01 01:38:09;;;;;;;13.00;3.23;;;10.40;99.90;;;;;;4993933;28;20273;-68
2023/04/01 01:40:37;;;;;;;8.00;3.07;;;12.30;99.90;;;;;;4958962;28;20207;-68
2023/04/01 01:43:12;;;;;;;11.90;3.43;;;10.30;99.90;;;;;;4977166;28;20179;-68
2023/04/01 01:45:44;;;;;;;9.67;2.80;;;10.30;99.90;;;;;;4970352;28;20218;-68
2023/04/01 01:48:11;;;;;;;10.63;3.47;;;10.40;99.90;;;;;;4976129;28;20437;-68
2023/04/01 01:50:37;;;;;;;10.93;3.57;;;10.30;99.90;;;;;;4974362;28;20705;-68
2023/04/01 01:53:09;;;;;;;11.50;3.47;;;10.50;99.90;;;;;;4973871;28;20180;-70
2023/04/01 01:55:38;;;;;;;9.97;3.50;;;10.30;99.90;;;;;;4984017;28;20183;-70
2023/04/01 01:58:25;;;;;;;12.77;3.77;;;10.30;99.90;;;;;;4978646;28;20282;-70
2023/04/01 02:00:54;;;;;;;13.57;3.50;;;10.30;99.90;;;;;;4976196;28;20211;-69
2023/04/01 02:03:22;;;;;;;14.60;4.27;;;10.30;99.90;;;;;;4963851;28;20255;-69
2023/04/01 02:05:51;;;;;;;14.80;4.00;;;10.30;99.90;;;;;;4974330;28;20187;-70
2023/04/01 02:08:22;;;;;;;9.73;3.40;;;10.80;99.90;;;;;;4974139;28;20271;-69
2023/04/01 02:11:01;;;;;;;13.00;3.90;;;10.20;99.90;;;;;;4973513;28;20754;-69
2023/04/01 02:13:39;;;;;;;13.70;3.80;;;10.20;99.90;;;;;;4972025;28;20791;-69
2023/04/01 02:16:20;;;;;;;17.53;4.47;;;10.20;99.90;;;;;;4974165;28;20191;-68
2023/04/01 02:18:50;;;;;;;14.37;4.83;;;10.20;99.90;;;;;;4973232;28;20167;-65
2023/04/01 02:21:18;;;;;;;12.87;4.17;;;10.20;99.90;;;;;;4974332;28;20187;-67
2023/04/01 02:23:45;;;;;;;14.90;4.73;;;10.10;99.90;;;;;;4974206;28;20180;-67
2023/04/01 02:26:12;;;;;;;14.03;4.07;;;10.60;99.90;;;;;;4974025;28;20697;-67
2023/04/01 02:28:40;;;;;;;13.77;4.20;;;10.10;99.90;;;;;;4973953;28;20260;-67
2023/04/01 02:31:07;;;;;;;11.47;3.53;;;10.10;99.90;;;;;;4974445;28;20206;-67
2023/04/01 02:33:33;;;;;;;15.10;4.40;;;10.10;99.90;;;;;;4986246;28;20206;-70
2023/04/01 02:35:59;;;;;;;14.03;4.07;;;10.30;99.90;;;;;;4985800;28;20746;-71
2023/04/01 02:38:25;;;;;;;10.63;4.27;;;10.10;99.90;;;;;;4992674;28;20183;-70
2023/04/01 02:41:00;;;;;;;16.70;4.07;;;9.80;99.90;;;;;;4993324;28;20803;-70
2023/04/01 02:43:26;;;;;;;14.10;3.77;;;10.10;99.90;;;;;;4993435;28;20266;-69
2023/04/01 02:45:52;;;;;;;13.43;3.87;;;;;;;;;;4991995;28;20736;-69
2023/04/01 02:48:18;;;;;;;12.43;3.77;;;10.10;99.90;;;;;;4993269;28;20671;-69
2023/04/01 02:50:43;;;;;;;12.90;3.73;;;10.10;99.90;;;;;;4991779;28;20229;-69
2023/04/01 02:53:09;;;;;;;12.73;3.50;;;10.10;99.90;;;;;;4991996;28;20187;-69
2023/04/01 02:55:35;;;;;;;11.47;3.20;;;;;;;;;;4993035;28;20226;-70
2023/04/01 02:58:01;;;;;;;14.53;3.10;;;10.00;99.90;;;;;;4992941;28;20174;-69
2023/04/01 03:00:27;;;;;;;8.83;2.50;;;10.00;99.90;;;;;;4992197;28;20246;-69
2023/04/01 03:02:53;;;;;;;12.93;3.00;;;10.00;99.90;;;;;;4992601;28;20306;-69
2023/04/01 03:05:19;;;;;;;8.77;2.50;;;10.00;99.90;;;;;;4992671;28;20210;-68
2023/04/01 03:07:45;;;;;;;10.73;3.20;;;10.00;99.90;;;;;;4992081;28;20689;-69
2023/04/01 03:10:11;;;;;;;9.23;2.60;;;10.00;99.90;;;;;;4991890;28;20211;-69
2023/04/01 03:12:36;;;;;;;10.03;2.77;;;10.20;99.90;;;;;;4991929;28;20186;-69
2023/04/01 03:15:03;;;;;;;11.77;2.90;;;10.00;99.90;;;;;;4992572;28;20179;-68
2023/04/01 03:17:28;;;;;;;8.93;3.00;;;10.00;99.90;;;;;;4992274;28;20186;-68
2023/04/01 03:19:54;;;;;;;9.80;2.90;;;10.00;99.90;;;;;;4991486;28;20191;-68
2023/04/01 03:22:20;;;;;;;7.47;2.90;;;10.00;99.90;;;;;;4976672;28;20190;-69
2023/04/01 03:24:47;;;;;;;11.50;3.40;;;10.00;99.90;;;;;;4990540;28;20216;-69
2023/04/01 03:27:13;;;;;;;11.03;3.47;;;9.90;99.90;;;;;;4990831;28;20211;-69
2023/04/01 03:29:39;;;;;;;13.67;3.87;;;10.30;99.90;;;;;;4989798;28;20289;-68
2023/04/01 03:32:05;;;;;;;15.27;3.57;;;9.90;99.90;;;;;;4989807;28;20646;-68
2023/04/01 03:34:31;;;;;;;8.63;3.40;;;9.90;99.90;;;;;;4990636;28;20591;-69
2023/04/01 03:36:57;;;;;;;10.70;3.47;;;;;;;;;;4990474;28;20227;-69
2023/04/01 03:39:22;;;;;;;9.17;3.17;;;9.90;99.90;;;;;;4990075;28;20705;-69
2023/04/01 03:41:48;;;;;;;8.37;2.83;;;10.10;99.90;;;;;;4990665;28;20179;-68
2023/04/01 03:44:14;;;;;;;13.13;3.73;;;10.10;99.90;;;;;;4991696;28;20643;-69
2023/04/01 03:46:39;;;;;;;7.70;2.90;;;9.90;99.90;;;;;;4991290;28;20179;-69
2023/04/01 03:49:11;;;;;;;9.27;3.37;;;10.00;99.90;;;;;;4992151;28;20190;-70
2023/04/01 03:51:41;;;;;;;9.77;3.70;;;9.90;99.90;;;;;;4992004;28;20241;-70
2023/04/01 03:54:07;;;;;;;11.00;3.43;;;9.90;99.90;;;;;;4991165;28;20167;-70
2023/04/01 03:56:34;;;;;;;15.93;3.67;;;;;;;;;;4991655;28;20655;-69
2023/04/01 03:59:03;;;;;;;11.60;3.47;;;9.60;99.90;;;;;;4991611;28;20183;-69
2023/04/01 04:01:29;;;;;;;10.30;3.00;;;9.70;99.90;;;;;;4991421;28;20613;-70
2023/04/01 04:03:55;;;;;;;14.63;3.40;;;9.90;99.90;;;;;;4991478;28;20210;-70
2023/04/01 04:06:21;;;;;;;11.43;3.23;;;10.20;99.90;;;;;;4991914;28;20191;-70
2023/04/01 04:08:46;;;;;;;13.70;3.53;;;10.10;99.90;;;;;;4991574;28;20298;-70
2023/04/01 04:11:12;;;;;;;10.50;3.30;;;9.90;99.90;;;;;;4991723;28;20238;-70
2023/04/01 04:13:38;;;;;;;10.13;3.67;;;10.20;99.90;;;;;;4991672;28;20186;-71
2023/04/01 04:16:04;;;;;;;8.40;3.37;;;10.00;99.90;;;;;;4991168;28;20739;-71
2023/04/01 04:18:30;;;;;;;14.80;3.40;;;9.90;99.90;;;;;;4991564;28;20217;-71
2023/04/01 04:20:55;;;;;;;10.60;3.40;;;9.80;99.90;;;;;;4990780;28;20655;-70
2023/04/01 04:23:21;;;;;;;8.13;3.10;;;9.80;99.90;;;;;;4991440;28;20179;-68
2023/04/01 04:25:59;;;;;;;11.43;3.13;;;9.90;99.90;;;;;;4991001;28;20745;-68
2023/04/01 04:28:26;;;;;;;7.43;2.53;;;9.90;99.90;;;;;;4990063;28;20182;-68
2023/04/01 04:30:51;;;;;;;8.17;2.53;;;9.90;99.90;;;;;;4985152;28;20355;-70
2023/04/01 04:33:17;;;;;;;7.87;2.73;;;9.80;99.90;;;;;;4983967;28;20649;-67
2023/04/01 04:35:43;;;;;;;15.27;3.00;;;9.80;99.90;;;;;;4990473;28;20657;-68
2023/04/01 04:38:08;;;;;;;16.47;2.80;;;9.90;99.90;;;;;;4991846;28;20517;-67
2023/04/01 04:40:37;;;;;;;6.63;2.17;;;9.90;99.90;;;;;;4986722;28;20694;-68
2023/04/01 04:43:03;;;;;;;10.17;2.37;;;9.90;99.90;;;;;;4990563;28;20270;-68
2023/04/01 04:45:29;;;;;;;10.13;2.80;;;9.90;99.90;;;;;;4990417;28;20186;-68
2023/04/01 04:47:55;;;;;;;7.27;2.70;;;9.90;99.90;;;;;;4990960;28;20194;-68
2023/04/01 04:50:21;;;;;;;10.87;2.97;;;9.90;99.90;;;;;;4991126;28;20613;-69
2023/04/01 04:52:46;;;;;;;6.73;2.53;;;9.90;99.90;;;;;;4990582;28;20175;-69
2023/04/01 04:55:12;;;;;;;9.87;3.07;;;10.10;99.90;;;;;;4990526;28;20190;-69
2023/04/01 04:57:38;;;;;;;11.17;2.77;;;9.90;99.90;;;;;;4990506;28;20187;-68
2023/04/01 05:00:04;;;;;;;11.67;2.67;;;9.90;99.90;;;;;;4990721;28;20230;-69
2023/04/01 05:02:29;;;;;;;11.30;3.00;;;9.90;99.90;;;;;;4974745;28;20187;-69
2023/04/01 05:04:55;;;;;;;9.00;2.80;;;9.90;99.90;;;;;;4991299;28;20183;-69
2023/04/01 05:07:21;;;;;;;10.40;3.13;;;10.80;99.90;;;;;;4984067;28;20612;-69
2023/04/01 05:09:46;;;;;;;13.00;2.70;;;9.80;99.90;;;;;;4990772;28;20194;-67
2023/04/01 05:12:12;;;;;;;9.70;3.23;;;9.80;99.90;;;;;;4990495;28;20237;-68
2023/04/01 05:14:39;;;;;;;10.20;3.00;;;9.80;99.90;;;;;;4990470;28;20654;-68
2023/04/01 05:17:09;;;;;;;9.17;3.60;;;9.80;99.90;;;;;;4990332;28;20171;-68
2023/04/01 05:19:35;;;;;;;14.30;3.57;;;9.80;99.90;;;;;;4990256;28;20183;-68
2023/04/01 05:22:01;;;;;;;9.97;3.60;;;;;;;;;;4972395;28;20688;-69
2023/04/01 05:24:26;;;;;;;9.87;3.70;;;9.90;99.90;;;;;;4990069;28;20269;-69
2023/04/01 05:26:52;;;;;;;9.83;3.37;;;;;;;;;;4990401;28;20178;-69
2023/04/01 05:29:18;;;;;;;14.47;3.20;;;9.80;99.90;;;;;;4989626;28;20274;-69
2023/04/01 05:31:43;;;;;;;10.37;3.27;;;9.90;99.90;;;;;;4990427;28;20195;-68
2023/04/01 05:34:10;;;;;;;10.13;2.83;;;;;;;;;;4990033;28;20183;-71
2023/04/01 05:36:36;;;;;;;8.27;3.07;;;9.80;99.90;;;;;;4990549;28;20269;-69
2023/04/01 05:39:02;;;;;;;6.87;2.87;;;10.20;99.90;;;;;;4990592;28;20188;-68
2023/04/01 05:41:28;;;;;;;4.67;2.73;;;9.80;99.90;;;;;;4989529;28;20194;-69
2023/04/01 05:43:53;;;;;;;10.70;2.60;;;9.80;99.90;;;;;;4989546;28;20183;-68
2023/04/01 05:46:19;;;;;;;6.77;2.67;;;9.80;99.90;;;;;;4972352;28;20508;-68
2023/04/01 05:48:44;;;;;;;9.13;3.07;;;10.00;99.90;;;;;;4989153;28;20243;-69
2023/04/01 05:51:14;;;;;;;8.10;3.27;;;9.80;99.90;;;;;;4989500;28;20214;-69
2023/04/01 05:53:41;;;;;;;8.60;3.03;;;9.80;99.90;;;;;;4991011;28;20171;-69
2023/04/01 05:56:09;;;;;;;9.13;3.27;;;9.70;99.90;;;;;;4991184;28;20176;-69
2023/04/01 05:58:35;;;;;;;10.57;3.40;;;9.60;99.90;;;;;;4994703;28;20167;-68
2023/04/01 06:01:07;;;;;;;10.53;3.20;;;9.80;99.90;;;;;;4992664;28;20191;-69
2023/04/01 06:03:33;;;;;;;11.50;3.50;;;9.80;99.90;;;;;;4993031;28;20670;-69
2023/04/01 06:05:58;;;;;;;9.97;3.37;;;9.80;99.90;;;;;;4993743;28;20259;-68
2023/04/01 06:08:25;;;;;;;15.30;3.73;;;;;;;;;;4994437;28;20182;-68
2023/04/01 06:11:16;;;;;;;9.53;3.30;;;9.80;99.90;;;;;;4994268;28;20214;-69
2023/04/01 06:14:08;;;;;;;8.97;2.90;;;9.80;99.90;;;;;;4993437;28;20183;-68
2023/04/01 06:16:54;;;;;;;11.27;3.17;;;9.80;99.90;;;;;;4993324;28;20163;-68
2023/04/01 06:19:38;;;;;;;14.23;3.40;;;9.80;99.90;;;;;;4993989;28;20183;-68
2023/04/01 06:22:07;;;;;;;11.30;3.40;;;9.80;99.90;;;;;;4993329;28;20175;-69
2023/04/01 06:24:44;;;;;;;9.07;3.60;;;7.90;99.90;;;;;;4993865;28;20187;-68
2023/04/01 06:27:29;;;;;;;11.53;3.37;;;9.80;99.90;;;;;;4994192;28;20182;-68
2023/04/01 06:30:13;;;;;;;7.57;3.20;;;9.80;99.90;;;;;;4993879;28;20268;-70
2023/04/01 06:33:03;;;;;;;10.10;3.60;;;9.80;99.90;;;;;;4975741;28;20183;-71
2023/04/01 06:35:41;;;;;;;12.43;3.63;;;9.70;99.90;;;;;;4984267;28;20187;-71
2023/04/01 06:38:32;;;;;;;10.70;3.23;;;9.80;99.90;;;;;;4993550;28;20205;-71
2023/04/01 06:41:18;;;;;;;12.47;3.20;;;9.80;99.90;;;;;;4992406;28;20192;-71
2023/04/01 06:44:13;;;;;;;11.93;3.20;;;9.80;99.90;;;;;;4986641;28;20295;-71
2023/04/01 06:46:58;;;;;;;10.53;3.20;;;9.90;99.90;;;;;;4984564;28;20192;-71
2023/04/01 06:49:58;;;;;;;8.87;2.87;;;9.80;99.90;;;;;;4992988;28;20179;-81
2023/04/01 06:52:34;;;;;;;8.93;3.00;;;9.60;99.90;;;;;;4992168;28;20273;-71
2023/04/01 06:55:14;;;;;;;11.03;3.37;;;9.70;99.90;;;;;;4991702;28;20190;-71
2023/04/01 06:57:44;;;;;;;12.60;3.30;;;9.80;99.90;;;;;;4992202;28;20670;-72
2023/04/01 07:00:21;;;;;;;9.87;3.40;;;9.80;99.90;;;;;;4993147;28;20175;-71
2023/04/01 07:03:22;;;;;;;11.30;3.67;;;9.90;99.90;;;;;;4991732;28;20648;-71
2023/04/01 07:05:50;;;;;;;14.57;3.33;;;9.90;99.90;;;;;;4941707;28;20195;-70
2023/04/01 07:08:21;;;;;;;11.00;3.60;;;9.90;99.90;;;;;;4973129;28;20172;-71
2023/04/01 07:11:03;;;;;;;13.50;3.23;;;10.00;99.90;;;;;;4973323;28;20258;-70
2023/04/01 07:13:50;;;;;;;9.73;3.23;;;9.90;99.90;;;;;;4979501;28;20202;-71
2023/04/01 07:16:26;;;;;;;9.80;3.60;;;9.90;99.90;;;;;;4992610;28;20199;-71
2023/04/01 07:19:04;;;;;;;11.63;3.30;;;9.90;99.90;;;;;;4993258;28;20190;-72
2023/04/01 07:21:56;;;;;;;13.53;3.37;;;9.90;99.90;;;;;;4993245;28;20182;-69
2023/04/01 07:24:37;;;;;;;12.93;3.03;;;10.00;99.90;;;;;;4992311;28;20733;-71
2023/04/01 07:27:05;;;;;;;12.10;3.30;;;10.00;99.90;;;;;;4993021;28;20175;-72
2023/04/01 07:29:31;;;;;;;9.00;3.17;;;10.00;99.90;;;;;;4992832;28;20237;-71
2023/04/01 07:32:19;;;;;;;14.83;3.50;;;10.20;99.90;;;;;;4991759;28;20187;-72
2023/04/01 07:35:11;;;;;;;13.40;3.40;;;10.10;99.90;;;;;;4991103;28;20766;-71
2023/04/01 07:37:46;;;;;;;12.37;3.73;;;10.10;99.90;;;;;;4974746;28;20649;-73
2023/04/01 07:40:19;;;;;;;16.00;3.90;;;10.10;99.90;;;;;;4992393;28;20190;-72
2023/04/01 07:43:15;;;;;;;7.33;2.80;;;10.20;99.90;;;;;;4992903;28;20179;-72
2023/04/01 07:46:26;;;;;;;10.37;3.37;;;10.20;99.90;;;;;;4992371;28;20184;-72
2023/04/01 07:49:03;;;;;;;5.70;2.83;;;10.20;99.90;;;;;;4932468;29;20177;-71
2023/04/01 07:51:38;;;;;;;13.40;3.30;;;10.30;99.90;;;;;;4931572;29;20209;-72
2023/04/01 07:54:22;;;;;;;8.50;2.90;;;10.30;99.90;;;;;;4970870;28;20248;-72
2023/04/01 07:56:58;;;;;;;11.07;3.27;;;10.10;99.90;;;;;;4991536;28;20183;-72
2023/04/01 07:59:23;;;;;;;10.70;3.30;;;10.50;99.90;;;;;;4991090;28;20175;-72
2023/04/01 08:02:18;;;;;;;12.03;3.23;;;10.60;99.90;;;;;;4991188;28;20198;-71
2023/04/01 08:04:56;;;;;;;7.30;2.87;;;10.60;99.90;;;;;;4969071;28;20437;-70
2023/04/01 08:07:39;;;;;;;4.80;2.10;;;10.60;99.90;;;;;;4990262;28;20191;-70
2023/04/01 08:10:22;;;;;;;7.47;2.50;;;10.50;99.90;;;;;;4974129;28;20215;-70
2023/04/01 08:13:03;;;;;;;7.83;2.07;;;10.60;99.90;;;;;;4992191;28;20262;-70
2023/04/01 08:15:55;;;;;;;3.87;1.70;;;10.70;99.90;;;;;;4990770;28;20246;-70
2023/04/01 08:18:44;;;;;;;5.87;1.70;;;10.70;99.90;;;;;;4991204;28;20164;-70
2023/04/01 08:21:24;;;;;;;6.17;1.53;;;10.70;99.90;;;;;;4991293;28;20217;-70
2023/04/01 08:23:57;;;;;;;4.47;1.33;;;10.90;99.90;;;;;;4991286;28;20672;-70
2023/04/01 08:26:40;;;;;;;2.83;1.20;;;10.90;99.90;;;;;;4991705;28;20213;-70
2023/04/01 08:29:35;;;;;;;4.30;0.77;;;11.00;99.90;;;;;;4990378;28;20229;-69
2023/04/01 08:32:20;;;;;;;3.53;1.10;;;11.00;99.90;;;;;;4973768;28;20195;-68
2023/04/01 08:34:50;;;;;;;3.47;0.60;;;10.90;99.90;;;;;;4978507;28;20188;-70
2023/04/01 08:37:28;;;;;;;2.43;0.50;;;10.80;99.90;;;;;;4990940;28;20219;-70
2023/04/01 08:40:04;;;;;;;4.43;0.37;;;10.50;99.90;;;;;;4991199;28;20186;-69
2023/04/01 08:42:36;;;;;;;2.97;0.43;;;10.50;99.90;;;;;;4991594;28;20214;-69
2023/04/01 08:45:07;;;;;;;1.70;0.30;;;10.40;99.90;;;;;;4974619;28;20194;-70
2023/04/01 08:47:51;;;;;;;1.80;0.30;;;10.30;99.90;;;;;;4990409;28;20627;-71
2023/04/01 08:50:26;;;;;;;1.37;0.40;;;10.30;99.90;;;;;;4981428;28;20352;-71
2023/04/01 08:53:16;;;;;;;1.90;0.30;;;10.30;99.90;;;;;;4976602;28;20810;-71
2023/04/01 08:56:01;;;;;;;1.03;0.33;;;10.30;99.90;;;;;;4978380;28;20186;-71
2023/04/01 08:58:35;;;;;;;1.73;0.50;;;10.30;99.90;;;;;;4991092;28;20189;-71
2023/04/01 09:01:13;;;;;;;1.33;0.37;;;10.20;99.90;;;;;;4990861;28;20250;-71
2023/04/01 09:03:57;;;;;;;0.47;0.20;;;10.20;99.90;;;;;;4989294;28;20197;-71
2023/04/01 09:06:23;;;;;;;2.27;0.30;;;11.60;99.90;;;;;;4981181;28;20266;-71
2023/04/01 09:08:51;;;;;;;1.47;0.20;;;10.30;99.90;;;;;;4990261;28;20253;-71
2023/04/01 09:11:55;;;;;;;1.23;0.33;;;10.50;99.90;;;;;;4990129;28;20218;-72
2023/04/01 09:14:49;;;;;;;2.93;0.83;;;10.40;99.90;;;;;;4962765;28;20183;-70
2023/04/01 09:17:27;;;;;;;3.87;0.43;;;10.50;99.90;;;;;;4985719;28;20301;-71
2023/04/01 09:20:01;;;;;;;0.87;0.30;;;10.50;99.90;;;;;;4991354;28;20258;-70
2023/04/01 09:22:30;;;;;;;3.47;0.40;;;10.60;99.90;;;;;;4990551;28;20185;-70
2023/04/01 09:25:30;;;;;;;1.67;0.40;;;10.70;99.90;;;;;;4990321;28;20309;-70
2023/04/01 09:28:40;;;;;;;0.70;0.40;;;10.80;99.90;;;;;;4968457;28;20238;-70
2023/04/01 09:31:40;;;;;;;1.10;0.33;;;10.80;99.90;;;;;;4992739;28;20207;-70
2023/04/01 09:34:14;;;;;;;0.80;0.17;;;10.90;99.90;;;;;;4994436;28;20263;-69
2023/04/01 09:36:56;;;;;;;0.23;0.20;;;10.90;99.90;;;;;;4994205;28;20215;-70
2023/04/01 09:39:30;;;;;;;1.07;0.40;;;11.10;99.90;;;;;;4981839;28;20717;-70
2023/04/01 09:42:34;;;;;;;0.70;0.20;;;11.20;99.90;;;;;;4993840;28;20171;-70
2023/04/01 09:45:08;;;;;;;0.13;0.13;;;11.40;99.90;;;;;;4993838;28;20203;-69
2023/04/01 09:47:54;;;;;;;3.77;0.30;;;11.40;99.90;;;;;;4993555;28;20179;-69
2023/04/01 09:50:36;;;;;;;0.30;0.20;;;11.60;99.90;;;;;;4993682;28;20562;-69
2023/04/01 09:53:21;;;;;;;2.13;0.13;;;11.40;99.90;;;;;;4993660;28;20203;-69
2023/04/01 09:56:20;;;;;;;0.30;0.20;;;11.50;99.90;;;;;;4992403;28;20273;-69
2023/04/01 09:58:51;;;;;;;1.37;0.20;;;11.40;99.90;;;;;;4975292;28;20179;-68
2023/04/01 10:01:31;;;;;;;2.33;0.20;;;11.70;99.90;;;;;;4975508;28;20176;-68
2023/04/01 10:04:27;;;;;;;1.07;0.17;;;11.60;99.90;;;;;;4980587;28;20262;-68
2023/04/01 10:06:53;;;;;;;0.20;0.10;;;;;;;;;;4994596;28;20167;-68
2023/04/01 10:09:56;;;;;;;0.13;0.03;;;11.60;99.90;;;;;;4994620;28;20187;-68
2023/04/01 10:12:46;;;;;;;0.20;0.10;;;11.70;99.90;;;;;;4993587;28;20221;-68
2023/04/01 10:15:30;;;;;;;3.63;0.40;;;11.60;99.90;;;;;;4975459;28;20679;-68
2023/04/01 10:18:26;;;;;;;0.30;0.10;;;11.60;99.90;;;;;;4994560;28;20257;-68
2023/04/01 10:21:04;;;;;;;0.50;0.30;;;11.70;99.90;;;;;;4976957;28;20370;-68
2023/04/01 10:24:07;;;;;;;0.60;0.27;;;11.70;99.90;;;;;;4992797;28;20201;-69
2023/04/01 10:27:05;;;;;;;1.00;0.20;;;11.60;99.90;;;;;;4976457;28;20191;-68
2023/04/01 10:29:30;;;;;;;0.50;0.20;;;11.50;99.90;;;;;;4991805;28;20183;-68
2023/04/01 10:32:02;;;;;;;0.73;0.20;;;11.40;99.90;;;;;;4987666;28;20180;-68
2023/04/01 10:34:55;;;;;;;0.87;0.20;;;11.30;99.90;;;;;;4991184;28;20180;-68
2023/04/01 10:38:10;;;;;;;1.97;0.20;;;11.20;99.90;;;;;;4993729;28;20269;-69
2023/04/01 10:40:57;;;;;;;0.37;0.30;;;11.10;99.90;;;;;;4992541;28;20626;-68
2023/04/01 10:43:58;;;;;;;1.73;0.60;;;11.10;99.90;;;;;;4991529;28;20182;-68
2023/04/01 10:47:03;;;;;;;4.50;3.10;;;10.90;99.90;;;;;;4989405;28;20266;-69
2023/04/01 10:49:38;;;;;;;4.73;3.50;;;11.30;99.90;;;;;;4973962;28;20191;-68
2023/04/01 10:52:21;;;;;;;6.77;3.70;;;11.30;99.90;;;;;;4989077;28;20645;-68
2023/04/01 10:55:03;;;;;;;8.33;4.50;;;11.70;99.90;;;;;;4984013;28;20259;-68
2023/04/01 10:58:05;;;;;;;3.70;3.13;;;11.70;99.90;;;;;;4989767;28;20171;-68
2023/04/01 11:00:54;;;;;;;4.33;3.23;;;11.80;99.90;;;;;;4991374;28;20255;-68
2023/04/01 11:03:57;;;;;;;4.33;3.10;;;12.20;99.90;;;;;;4985053;28;20222;-68
2023/04/01 11:07:00;;;;;;;4.40;3.20;;;12.10;99.90;;;;;;4991446;28;20186;-68
2023/04/01 11:09:37;;;;;;;5.10;3.73;;;12.10;99.90;;;;;;4990203;28;20638;-68
2023/04/01 11:12:12;;;;;;;3.80;3.40;;;12.30;99.90;;;;;;4990085;28;20635;-68
2023/04/01 11:14:49;;;;;;;4.80;3.27;;;12.40;99.90;;;;;;4991698;28;20175;-68
2023/04/01 11:17:35;;;;;;;5.33;3.93;;;12.40;99.90;;;;;;4990180;28;20190;-69
2023/04/01 11:20:42;;;;;;;3.97;3.33;;;12.10;99.90;;;;;;4986351;28;20215;-67
2023/04/01 11:23:14;;;;;;;4.85;3.35;;;12.30;99.90;;;;;;4971610;28;20211;-68
2023/04/01 11:26:05;;;;;;;3.93;3.53;;;12.60;99.90;;;;;;4987618;28;20179;-68
2023/04/01 11:29:00;;;;;;;5.77;4.10;;;12.20;99.90;;;;;;4985898;28;20195;-67
2023/04/01 11:31:37;;;;;;;5.13;3.53;;;12.20;99.90;;;;;;4972335;28;20330;-68
2023/04/01 11:34:05;;;;;;;8.73;3.77;;;12.10;99.90;;;;;;4989115;28;20194;-68
2023/04/01 11:36:56;;;;;;;6.07;4.03;;;12.20;99.90;;;;;;4989493;28;20249;-67
2023/04/01 11:39:34;;;;;;;5.20;4.17;;;12.20;99.90;;;;;;4988507;28;20183;-68
2023/04/01 11:42:09;;;;;;;5.07;3.83;;;12.70;99.90;;;;;;4986604;28;20186;-68
2023/04/01 11:44:57;;;;;;;5.00;4.17;;;13.10;99.90;;;;;;4987768;28;20186;-68
2023/04/01 11:47:44;;;;;;;5.80;4.30;;;13.10;99.90;;;;;;4967779;28;20188;-67
2023/04/01 11:50:35;;;;;;;7.17;4.77;;;12.80;99.90;;;;;;4985109;28;20226;-67
2023/04/01 11:53:19;;;;;;;7.33;5.50;;;12.80;99.90;;;;;;4989952;28;20179;-67
2023/04/01 11:56:00;;;;;;;7.23;5.73;;;12.70;99.90;;;;;;4988964;28;20190;-67
2023/04/01 11:59:05;;;;;;;7.97;6.20;;;12.70;99.90;;;;;;4989926;28;20626;-67
2023/04/01 12:01:37;;;;;;;10.15;7.20;;;12.60;99.90;;;;;;4989231;28;20727;-67
2023/04/01 12:04:21;;;;;;;11.07;7.05;;;12.50;99.90;;;;;;4988871;28;20178;-67
2023/04/01 12:07:01;;;;;;;11.75;7.25;;;12.50;99.90;;;;;;4966198;28;20187;-67
2023/04/01 12:09:42;;;;;;;10.53;7.63;;;12.20;99.90;;;;;;4990137;28;20557;-68
2023/04/01 12:12:46;;;;;;;10.55;7.47;;;12.30;99.90;;;;;;4971885;28;20218;-68
2023/04/01 12:15:41;;;;;;;13.97;7.93;;;12.30;99.90;;;;;;4954489;28;20187;-69
2023/04/01 12:18:32;;;;;;;11.30;9.07;;;12.00;99.90;;;;;;4951954;28;20285;-68
2023/04/01 12:21:34;;;;;;;13.73;8.90;;;11.70;99.90;;;;;;4972514;28;20665;-68
2023/04/01 12:24:13;;;;;;;12.23;8.20;;;11.80;99.90;;;;;;4972228;28;20224;-68
2023/04/01 12:27:06;;;;;;;11.43;8.73;;;12.20;99.90;;;;;;4990063;28;20179;-68
2023/04/01 12:30:19;;;;;;;10.77;7.50;;;12.40;99.90;;;;;;4971880;28;20211;-69
2023/04/01 12:33:04;;;;;;;12.57;7.50;;;12.60;99.90;;;;;;4928147;29;20702;-68
2023/04/01 12:36:04;;;;;;;8.60;7.03;;;13.60;99.90;;;;;;4983603;28;20194;-69
2023/04/01 12:38:50;;;;;;;11.70;7.50;;;13.80;99.90;;;;;;4974265;28;20203;-68
2023/04/01 12:41:33;;;;;;;14.07;7.75;;;13.90;99.90;;;;;;4988988;28;20193;-68
2023/04/01 12:44:36;;;;;;;11.77;9.13;;;13.50;99.90;;;;;;4970605;28;20190;-68
2023/04/01 12:47:08;;;;;;;11.02;7.95;;;13.50;99.90;;;;;;4984067;28;20187;-68
2023/04/01 12:49:39;;;;;;;11.27;7.88;;;13.50;99.90;;;;;;4988103;28;20229;-68
2023/04/01 12:52:19;;;;;;;11.57;8.20;;;13.50;99.90;;;;;;4989517;28;20198;-68
2023/04/01 12:55:03;;;;;;;11.48;8.00;;;13.70;99.90;;;;;;4989983;28;20672;-68
2023/04/01 12:57:44;;;;;;;7.75;6.63;;;14.60;99.90;;;;;;4971090;28;20195;-68
2023/04/01 13:00:28;;;;;;;12.80;6.93;;;15.10;99.90;;;;;;4970405;28;20183;-68
2023/04/01 13:03:11;;;;;;;9.02;6.03;;;14.80;99.90;;;;;;4989364;28;20175;-68
2023/04/01 13:05:55;;;;;;;8.05;5.60;;;14.10;99.90;;;;;;4991016;28;20186;-68
2023/04/01 13:08:52;;;;;;;7.47;5.25;;;13.80;99.90;;;;;;4993507;28;20266;-68
2023/04/01 13:11:37;;;;;;;9.07;4.78;;;13.70;99.90;;;;;;4993346;28;20294;-68
2023/04/01 13:14:22;;;;;;;5.32;4.78;;;13.40;99.90;;;;;;4992749;28;20178;-68
2023/04/01 13:17:15;;;;;;;6.63;4.40;;;13.50;99.90;;;;;;4993047;28;20175;-68
2023/04/01 13:20:03;;;;;;;7.22;4.20;;;14.10;99.90;;;;;;4993448;28;20693;-68
2023/04/01 13:22:53;;;;;;;7.20;4.65;;;14.90;99.90;;;;;;4990499;28;20184;-68
2023/04/01 13:25:56;;;;;;;7.82;5.07;;;14.60;99.90;;;;;;4987503;28;20206;-68
2023/04/01 13:28:28;;;;;;;5.68;4.85;;;14.40;99.90;;;;;;4987835;28;20186;-68
2023/04/01 13:31:07;;;;;;;7.85;4.88;;;14.40;99.90;;;;;;4992673;28;20234;-68
2023/04/01 13:33:44;;;;;;;5.80;4.32;;;14.90;99.90;;;;;;4985604;28;20654;-68
2023/04/01 13:36:34;;;;;;;7.82;3.92;;;15.80;99.90;;;;;;4992388;28;20685;-68
2023/04/01 13:39:15;;;;;;;6.20;3.67;;;16.40;99.90;;;;;;4993301;28;20191;-69